Aérodrome :
LOGIN :

S'inscrire | Disclaimer

   EN    FR    IT 

 










Légende :    VFR   VFR Marginal   IFR   IFR Intensif   IFR Très Intensif
Visi : 
Plafond : 
>= 8 km
>= 3000ft
5 à 8 km
1000 à 3000 ft
1500m à 5 km
500 à 1000 ft
800 à 1500m
200 à 500 ft
< 800m
< 200 ft
Symboles :   Orages  Brouillard  Fortes neiges  Fortes précipitations  Vent > 20 kt
SIGMETs :   Divers  Orages  Givrage  Turbulence  Onde Orograph.  Cendres Volcan.






- Altitude de l'aérodrome : 36 ft
- Code IATA : LTQ


LFAT - Le Touquet

DERNIER METAR :
  • 211930Z AUTO 13008KT 9999 BKN040 OVC052 06/04 Q1001

METARs EXPIRÉS :
  • 211900Z AUTO 13008KT 9999 BKN049 OVC058 06/05 Q1001
  • 211830Z AUTO 12011KT 9999 BKN030 BKN052 OVC062 06/05 Q1001
  • 211800Z AUTO 12010KT CAVOK 06/05 Q1001 TEMPO 3000 RA OVC004
  • 211730Z AUTO 12009KT 9000 NSC 06/05 Q1001 TEMPO 3000 RA OVC004
  • 211700Z AUTO 11008KT 7000 NSC 05/04 Q1002 TEMPO 3000 RA OVC004

TAF TAF LFAT
Valide du 21 à 15h jusqu'au 22 à 00h UTC


211400Z 2115/2124 13010KT 9000 NSC
BECMG 2116/2118 BKN012 OVC030
TEMPO 2118/2122 3000 RA OVC004
TEMPO 2122/2124 OVC008
ATIS : +33 3 21 06 62 84



MET'MAP, la Météo Aéronautique d'un coup d'oeil ! - Copyright ORBIFLY Décembre 2007 - Disclaimer

ORBIFLY MET'MAP TEAM :

Programmation & Développement : Alexandra Zaïnal
Conception & Développement : Baudouin d'Aumeries
Co-Programmation & Développement : Marc-Olivier Méhu
Soutien technique & logistique : Manuel Goepfert

Contact : metmap@orbifly.com




SOURCES & CREDITS :

   NOAA